createdAt,value
2023-03-17T00:04:52.489Z,63.99
2023-03-17T00:09:56.068Z,64.46
2023-03-17T00:14:58.787Z,64.74
2023-03-17T00:20:01.981Z,65.01
2023-03-17T00:25:22.284Z,65.02
2023-03-17T00:30:25.579Z,65.17
2023-03-17T00:35:29.344Z,65.01
2023-03-17T00:40:32.733Z,64.74
2023-03-17T00:45:35.928Z,64.95
2023-03-17T00:50:38.648Z,64.55
2023-03-17T00:55:42.679Z,64.77
2023-03-17T01:00:45.834Z,64.75
2023-03-17T01:05:49.810Z,64.95
2023-03-17T01:10:53.033Z,65.42
2023-03-17T01:15:57.298Z,65.54
2023-03-17T01:21:00.038Z,65.80
2023-03-17T01:26:03.178Z,65.97
2023-03-17T01:31:05.889Z,65.89
2023-03-17T01:36:10.772Z,65.95
2023-03-17T01:41:13.496Z,65.60
2023-03-17T01:46:25.362Z,65.84
2023-03-17T01:51:46.771Z,65.72
2023-03-17T01:56:52.216Z,65.72
2023-03-17T02:02:01.658Z,66.43
2023-03-17T02:07:05.349Z,66.62
2023-03-17T02:12:09.917Z,66.20
2023-03-17T02:17:13.000Z,66.17
2023-03-17T02:22:17.286Z,66.17
2023-03-17T02:27:29.965Z,66.37
2023-03-17T02:32:38.731Z,65.76
2023-03-17T02:37:43.774Z,65.55
2023-03-17T02:42:46.862Z,65.86
2023-03-17T02:47:51.624Z,65.95
2023-03-17T02:52:54.903Z,65.92
2023-03-17T02:57:59.064Z,65.81
2023-03-17T03:03:02.570Z,65.77
2023-03-17T03:08:05.553Z,66.07
2023-03-17T03:13:08.378Z,66.10
2023-03-17T03:18:12.500Z,66.27
2023-03-17T03:23:16.328Z,66.68
2023-03-17T03:28:19.343Z,66.34
2023-03-17T03:33:22.120Z,66.94
2023-03-17T03:38:26.314Z,67.15
2023-03-17T03:43:29.138Z,67.73
2023-03-17T03:48:32.457Z,68.03
2023-03-17T03:53:35.678Z,67.64
2023-03-17T03:58:38.369Z,67.13
2023-03-17T04:03:41.308Z,66.88
2023-03-17T04:08:44.080Z,67.32
2023-03-17T04:13:46.789Z,67.79
2023-03-17T04:18:49.534Z,68.15
2023-03-17T04:23:52.284Z,67.94
2023-03-17T04:28:54.989Z,67.90
2023-03-17T04:33:57.749Z,67.86
2023-03-17T04:39:02.111Z,67.83
2023-03-17T04:44:05.182Z,67.72
2023-03-17T04:49:08.515Z,68.04
2023-03-17T04:54:11.266Z,68.28
2023-03-17T04:59:14.526Z,68.53
2023-03-17T05:04:30.858Z,68.67
2023-03-17T05:09:34.842Z,68.46
2023-03-17T05:14:37.683Z,68.66
2023-03-17T05:19:40.856Z,68.74
2023-03-17T05:24:43.770Z,69.16
2023-03-17T05:29:46.492Z,69.42
2023-03-17T05:34:50.073Z,69.16
2023-03-17T05:39:53.915Z,69.47
2023-03-17T05:44:56.713Z,69.78
2023-03-17T05:50:03.358Z,69.70
2023-03-17T05:55:07.409Z,69.75
2023-03-17T06:00:12.757Z,69.47
2023-03-17T06:05:16.405Z,69.19
2023-03-17T06:10:19.205Z,68.55
2023-03-17T06:15:21.966Z,68.43
2023-03-17T06:20:25.206Z,68.08
2023-03-17T06:25:27.967Z,68.02
2023-03-17T06:30:33.441Z,67.38
2023-03-17T06:35:36.628Z,67.61
2023-03-17T06:40:39.445Z,67.33
2023-03-17T06:45:42.177Z,67.52
2023-03-17T06:50:47.537Z,67.38
2023-03-17T06:55:50.338Z,66.79
2023-03-17T07:00:54.646Z,66.65
2023-03-17T07:05:58.290Z,67.24
2023-03-17T07:11:01.053Z,67.52
2023-03-17T07:16:03.958Z,67.84
2023-03-17T07:21:07.284Z,67.69
2023-03-17T07:26:10.595Z,67.37
2023-03-17T07:31:14.560Z,66.53
2023-03-17T07:36:17.644Z,65.82
2023-03-17T07:41:22.058Z,65.15
2023-03-17T07:46:24.849Z,65.24
2023-03-17T07:51:28.323Z,64.41
2023-03-17T07:56:31.911Z,65.21
2023-03-17T08:01:35.539Z,65.24
2023-03-17T08:06:40.902Z,65.55
2023-03-17T08:11:43.705Z,64.86
2023-03-17T08:16:46.553Z,65.62
2023-03-17T08:21:49.456Z,65.18
2023-03-17T08:26:52.433Z,64.95
2023-03-17T08:31:55.416Z,64.84
2023-03-17T08:36:58.200Z,63.67
2023-03-17T08:42:01.387Z,63.50
2023-03-17T08:47:04.797Z,63.42
2023-03-17T08:52:08.223Z,62.99
2023-03-17T08:57:10.972Z,61.94
2023-03-17T09:02:15.079Z,61.77
2023-03-17T09:07:17.876Z,60.74
2023-03-17T09:12:20.742Z,59.22
2023-03-17T09:17:23.565Z,57.41
2023-03-17T09:22:26.367Z,55.82
2023-03-17T09:27:29.102Z,54.84
2023-03-17T09:32:32.479Z,54.20
2023-03-17T09:37:35.313Z,52.57
2023-03-17T09:42:53.372Z,53.60
2023-03-17T09:48:14.217Z,54.09
2023-03-17T09:53:23.040Z,53.00
2023-03-17T09:58:32.230Z,51.25
2023-03-17T10:03:34.990Z,50.36
2023-03-17T10:08:42.373Z,51.75
2023-03-17T10:13:48.597Z,51.15
2023-03-17T10:19:01.442Z,50.58
2023-03-17T10:24:05.016Z,48.39
2023-03-17T10:29:22.704Z,50.49
2023-03-17T10:34:29.269Z,48.79
2023-03-17T10:39:33.076Z,48.39
2023-03-17T10:44:45.064Z,49.04
2023-03-17T10:49:48.331Z,47.89
2023-03-17T10:54:54.593Z,47.86
2023-03-17T10:59:59.924Z,48.79
2023-03-17T11:05:09.767Z,47.72
2023-03-17T11:10:24.163Z,47.05
2023-03-17T11:15:34.193Z,48.02
2023-03-17T11:20:41.086Z,46.91
2023-03-17T11:25:46.513Z,46.59
2023-03-17T11:31:03.245Z,47.00
2023-03-17T11:36:09.369Z,47.17
2023-03-17T11:41:27.598Z,46.16
2023-03-17T11:46:45.321Z,47.30
2023-03-17T11:52:07.171Z,47.16
2023-03-17T11:57:15.497Z,46.28
2023-03-17T12:02:25.460Z,47.11
2023-03-17T12:07:51.508Z,46.68
2023-03-17T12:13:02.273Z,46.14
2023-03-17T12:18:12.501Z,44.78
2023-03-17T12:23:21.918Z,44.26
2023-03-17T12:28:27.877Z,43.94
2023-03-17T12:33:51.982Z,44.42
2023-03-17T12:39:05.618Z,44.14
2023-03-17T12:44:46.002Z,43.90
2023-03-17T12:50:16.792Z,43.40
2023-03-17T12:55:23.414Z,43.28
2023-03-17T13:00:33.528Z,44.27
2023-03-17T13:05:37.553Z,45.51
2023-03-17T13:10:48.857Z,45.38
2023-03-17T13:15:58.449Z,45.13
2023-03-17T13:21:01.208Z,45.61
2023-03-17T13:26:04.489Z,45.05
2023-03-17T13:31:14.702Z,45.68
2023-03-17T13:36:40.717Z,46.25
2023-03-17T13:42:18.685Z,45.72
2023-03-17T13:47:31.603Z,45.98
2023-03-17T13:52:38.545Z,45.26
2023-03-17T13:57:41.309Z,44.69
2023-03-17T14:02:44.849Z,45.03
2023-03-17T14:07:56.478Z,44.87
2023-03-17T14:13:07.952Z,44.79
2023-03-17T14:18:19.610Z,44.98
2023-03-17T14:23:24.171Z,44.96
2023-03-17T14:28:29.660Z,45.25
2023-03-17T14:33:34.750Z,44.69
2023-03-17T14:38:39.413Z,44.93
2023-03-17T14:43:44.048Z,44.92
2023-03-17T14:48:48.694Z,45.44
2023-03-17T14:53:52.808Z,46.14
2023-03-17T14:59:04.096Z,46.10
2023-03-17T15:04:17.075Z,46.45
2023-03-17T15:09:27.385Z,47.01
2023-03-17T15:14:34.032Z,45.78
2023-03-17T15:19:41.015Z,44.89
2023-03-17T15:24:44.274Z,45.45
2023-03-17T15:29:48.366Z,45.85
2023-03-17T15:34:52.996Z,45.88
2023-03-17T15:39:56.439Z,46.37
2023-03-17T15:45:02.962Z,46.81
2023-03-17T15:50:28.740Z,47.03
2023-03-17T15:55:31.612Z,47.58
2023-03-17T16:00:34.952Z,47.99
2023-03-17T16:05:37.855Z,47.47
2023-03-17T16:10:40.701Z,47.97
2023-03-17T16:15:47.329Z,48.00
2023-03-17T16:20:51.168Z,48.72
2023-03-17T16:25:59.269Z,49.18
2023-03-17T16:31:24.273Z,49.35
2023-03-17T16:36:27.127Z,49.97
2023-03-17T16:41:34.707Z,51.17
2023-03-17T16:46:37.752Z,51.61
2023-03-17T16:51:40.755Z,51.43
2023-03-17T16:56:43.555Z,51.04
2023-03-17T17:01:46.309Z,50.84
2023-03-17T17:06:50.068Z,51.06
2023-03-17T17:11:52.804Z,51.26
2023-03-17T17:16:55.646Z,52.85
2023-03-17T17:21:58.370Z,53.50
2023-03-17T17:27:01.131Z,53.91
2023-03-17T17:32:04.033Z,54.24
2023-03-17T17:37:10.115Z,54.43
2023-03-17T17:42:12.920Z,54.50
2023-03-17T17:47:17.107Z,54.54
2023-03-17T17:52:19.946Z,54.73
2023-03-17T17:57:23.353Z,54.77
2023-03-17T18:02:26.097Z,54.94
2023-03-17T18:07:28.838Z,55.42
2023-03-17T18:12:31.947Z,55.44
2023-03-17T18:17:35.290Z,55.56
2023-03-17T18:22:38.182Z,55.44
2023-03-17T18:27:41.431Z,55.56
2023-03-17T18:32:45.425Z,55.59
2023-03-17T18:37:49.234Z,55.45
2023-03-17T18:42:51.982Z,55.54
2023-03-17T18:47:54.819Z,55.42
2023-03-17T18:52:58.159Z,56.08
2023-03-17T18:58:01.021Z,55.64
2023-03-17T19:03:03.936Z,55.07
2023-03-17T19:08:07.671Z,55.16
2023-03-17T19:13:10.466Z,55.37
2023-03-17T19:18:13.205Z,55.55
2023-03-17T19:23:16.159Z,56.21
2023-03-17T19:28:19.319Z,56.38
2023-03-17T19:33:22.318Z,56.52
2023-03-17T19:38:27.131Z,57.03
2023-03-17T19:43:40.411Z,57.48
2023-03-17T19:48:43.853Z,57.90
2023-03-17T19:53:46.865Z,57.71
2023-03-17T19:58:52.871Z,56.85
2023-03-17T20:03:56.356Z,56.50
2023-03-17T20:08:59.319Z,56.26
2023-03-17T20:14:03.022Z,56.40
2023-03-17T20:19:05.770Z,56.89
2023-03-17T20:24:11.080Z,56.84
2023-03-17T20:29:14.552Z,57.19
2023-03-17T20:34:17.414Z,57.65
2023-03-17T20:39:20.130Z,58.00
2023-03-17T20:44:24.099Z,58.41
2023-03-17T20:49:27.825Z,58.70
2023-03-17T20:54:30.528Z,59.19
2023-03-17T20:59:34.648Z,59.44
2023-03-17T21:04:37.636Z,59.56
2023-03-17T21:09:41.368Z,59.94
2023-03-17T21:14:44.591Z,60.13
2023-03-17T21:19:47.447Z,60.14
2023-03-17T21:24:50.579Z,60.07
2023-03-17T21:29:53.425Z,60.24
2023-03-17T21:34:56.709Z,60.11
2023-03-17T21:40:02.473Z,60.22
2023-03-17T21:45:05.819Z,60.27
2023-03-17T21:50:09.166Z,60.27
2023-03-17T21:55:12.086Z,60.36
2023-03-17T22:00:15.321Z,60.31
2023-03-17T22:05:18.580Z,60.17
2023-03-17T22:10:21.601Z,60.02
2023-03-17T22:15:24.382Z,59.83
2023-03-17T22:20:27.166Z,59.87
2023-03-17T22:25:29.933Z,59.84
2023-03-17T22:30:37.311Z,59.66
2023-03-17T22:35:40.250Z,59.53
2023-03-17T22:40:43.505Z,59.49
2023-03-17T22:45:47.438Z,59.31
2023-03-17T22:50:50.302Z,59.28
2023-03-17T22:55:53.487Z,59.67
2023-03-17T23:00:56.563Z,59.70
2023-03-17T23:06:00.881Z,59.76
2023-03-17T23:11:07.304Z,59.75
2023-03-17T23:16:10.057Z,59.73
2023-03-17T23:21:26.579Z,59.68
2023-03-17T23:26:30.126Z,59.60
2023-03-17T23:31:34.139Z,59.58
2023-03-17T23:36:40.247Z,59.66
2023-03-17T23:41:43.069Z,59.82
2023-03-17T23:46:46.543Z,59.79
2023-03-17T23:51:49.500Z,59.84
2023-03-17T23:56:52.740Z,59.90
